Time;durP1;ratioP1;P1;durP2;ratioP2;P2;SDS_P1;SDS_P2;PMS_P1;PMS_P2;Temp;Humidity;BMP_temperature;BMP_pressure;BME280_temperature;BME280_humidity;BME280_pressure;Samples;Min_cycle;Max_cycle;Signal;HPM_P1;HPM_P2
2021/12/08 10:45:30;;;;;;;6.32;3.50;;;;;;;;;;5085334;27;20410;-74
2021/12/08 10:47:59;;;;;;;4.65;1.60;;;;;;;;;;5085358;28;20036;-75
2021/12/08 10:56:00;;;;;;;3.28;1.73;;;;;;;;;;5084178;28;20012;-74
2021/12/08 10:58:27;;;;;;;1.30;1.00;;;;;;;;;;5085429;28;20501;-74
2021/12/08 11:00:55;;;;;;;1.73;1.05;;;;;;;;;;5084447;28;20027;-75
2021/12/08 11:03:21;;;;;;;1.13;0.85;;;;;;;;;;5084214;28;20032;-75
2021/12/08 11:05:52;;;;;;;1.33;1.00;;;;;;;;;;5087351;28;20039;-75
2021/12/08 11:08:21;;;;;;;5.82;1.45;;;;;;;;;;5086225;28;20539;-76
2021/12/08 11:10:52;;;;;;;2.00;0.88;;;;;;;;;;5084283;28;20028;-76
2021/12/08 11:13:22;;;;;;;1.50;0.95;;;;;;;;;;5084251;28;20038;-75
2021/12/08 11:15:49;;;;;;;3.65;1.00;;;;;;;;;;5083864;28;20088;-75
2021/12/08 11:18:18;;;;;;;1.05;0.70;;;;;;;;;;5068768;28;20040;-76
2021/12/08 11:20:52;;;;;;;0.40;0.40;;;;;;;;;;5082944;28;20029;-77
2021/12/08 11:23:38;;;;;;;1.42;0.90;;;;;;;;;;5084209;28;20039;-77
2021/12/08 11:26:10;;;;;;;1.00;0.52;;;;;;;;;;5083722;28;20072;-76
2021/12/08 11:28:36;;;;;;;0.70;0.45;;;;;;;;;;5085811;28;20025;-76
2021/12/08 11:31:29;;;;;;;0.57;0.57;;;;;;;;;;5085012;28;20030;-76
2021/12/08 11:34:04;;;;;;;3.47;0.60;;;;;;;;;;5025200;28;20029;-76
2021/12/08 11:36:35;;;;;;;4.25;2.30;;;;;;;;;;5024441;28;20044;-77
2021/12/08 11:39:01;;;;;;;;;;;;;;;;;;5026026;28;20050;-76
2021/12/08 11:41:42;;;;;;;2.47;1.20;;;;;;;;;;5027482;28;19913;-76
2021/12/08 11:44:08;;;;;;;3.05;1.58;;;;;;;;;;5025805;28;20048;-76
2021/12/08 11:46:38;;;;;;;0.80;0.60;;;;;;;;;;5026069;28;20040;-75
2021/12/08 11:49:07;;;;;;;0.70;0.40;;;;;;;;;;5026166;28;20025;-76
2021/12/08 11:51:43;;;;;;;0.93;0.60;;;;;;;;;;5023610;28;20066;-75
2021/12/08 11:54:27;;;;;;;0.80;0.40;;;;;;;;;;5007088;28;20408;-76
2021/12/08 11:57:00;;;;;;;1.00;0.68;;;;;;;;;;5026507;28;20043;-76
2021/12/08 11:59:26;;;;;;;1.23;0.65;;;;;;;;;;5015572;28;20029;-76
2021/12/08 12:01:53;;;;;;;1.58;0.80;;;;;;;;;;5012902;28;20542;-76
2021/12/08 12:04:19;;;;;;;1.33;0.88;;;;;;;;;;5012759;28;20048;-76
2021/12/08 12:06:46;;;;;;;2.72;1.00;;;;;;;;;;5011974;28;20033;-76
2021/12/08 12:09:12;;;;;;;1.20;0.95;;;;;;;;;;5009569;28;20173;-76
2021/12/08 12:11:39;;;;;;;3.75;1.92;;;;;;;;;;5067038;28;20059;-76
2021/12/08 12:14:05;;;;;;;1.77;1.20;;;;;;;;;;5070093;28;20029;-76
2021/12/08 12:16:32;;;;;;;3.45;1.90;;;;;;;;;;5071545;28;20041;-76
2021/12/08 12:19:03;;;;;;;1.42;1.30;;;;;;;;;;5068560;28;20024;-76
2021/12/08 12:21:33;;;;;;;1.48;0.90;;;;;;;;;;5069841;28;20021;-76
2021/12/08 12:24:05;;;;;;;0.88;0.77;;;;;;;;;;5072365;28;20028;-76
2021/12/08 12:26:40;;;;;;;1.45;0.70;;;;;;;;;;5071577;28;20358;-75
2021/12/08 12:29:18;;;;;;;0.82;0.73;;;;;;;;;;5069778;28;20043;-76
2021/12/08 12:31:45;;;;;;;5.25;0.63;;;;;;;;;;5069847;28;20463;-76
2021/12/08 12:34:32;;;;;;;1.50;0.80;;;;;;;;;;5069747;28;20033;-76
2021/12/08 12:37:00;;;;;;;1.27;0.82;;;;;;;;;;5069415;28;20040;-76
2021/12/08 12:39:28;;;;;;;0.52;0.50;;;;;;;;;;5069371;28;20025;-76
2021/12/08 12:42:02;;;;;;;2.65;1.30;;;;;;;;;;5071947;28;20041;-76
2021/12/08 12:44:32;;;;;;;2.97;1.80;;;;;;;;;;5070705;28;20056;-75
2021/12/08 12:47:24;;;;;;;8.07;4.63;;;;;;;;;;5068377;28;20435;-76
2021/12/08 12:50:00;;;;;;;4.57;2.05;;;;;;;;;;5069294;28;20423;-76
2021/12/08 12:52:41;;;;;;;3.63;1.80;;;;;;;;;;5069404;28;20393;-74
2021/12/08 12:55:09;;;;;;;0.93;0.68;;;;;;;;;;5069402;28;20044;-76
2021/12/08 12:58:12;;;;;;;3.30;1.33;;;;;;;;;;5067967;28;20021;-75
2021/12/08 13:00:47;;;;;;;2.03;1.40;;;;;;;;;;4997602;28;20037;-76
2021/12/08 13:03:32;;;;;;;2.08;1.65;;;;;;;;;;5008196;28;20038;-76
2021/12/08 13:05:58;;;;;;;1.88;1.08;;;;;;;;;;5025618;28;20057;-76
2021/12/08 13:08:30;;;;;;;9.75;4.15;;;;;;;;;;4995269;28;20049;-76
2021/12/08 13:10:56;;;;;;;;;;;;;;;;;;5011242;28;20461;-76
2021/12/08 13:13:22;;;;;;;12.07;4.00;;;;;;;;;;5011427;28;20375;-76
2021/12/08 13:15:49;;;;;;;5.13;2.83;;;;;;;;;;5010929;28;20049;-76
2021/12/08 13:18:16;;;;;;;4.85;2.17;;;;;;;;;;5007810;28;20026;-76
2021/12/08 13:20:44;;;;;;;1.08;0.82;;;;;;;;;;5014459;28;20038;-76
2021/12/08 13:23:11;;;;;;;8.70;3.35;;;;;;;;;;5011171;28;20032;-76
2021/12/08 13:28:17;;;;;;;5.35;2.30;;;;;;;;;;5011230;28;20029;-76
2021/12/08 13:30:48;;;;;;;13.40;4.10;;;;;;;;;;5010297;28;20025;-76
2021/12/08 13:33:19;;;;;;;;;;;;;;;;;;5008343;28;20022;-76
2021/12/08 13:35:45;;;;;;;6.03;4.00;;;;;;;;;;5066099;28;19916;-76
2021/12/08 13:38:11;;;;;;;6.22;3.05;;;;;;;;;;5068383;28;20039;-76
2021/12/08 13:40:45;;;;;;;4.18;2.28;;;;;;;;;;5068485;28;20389;-75
2021/12/08 13:43:31;;;;;;;2.20;1.35;;;;;;;;;;5068228;28;20066;-76
2021/12/08 13:45:57;;;;;;;2.38;1.38;;;;;;;;;;5068441;28;20021;-76
2021/12/08 13:48:24;;;;;;;4.03;1.85;;;;;;;;;;5067974;28;20099;-76
2021/12/08 13:50:51;;;;;;;3.00;1.42;;;;;;;;;;5071431;28;20031;-75
2021/12/08 13:53:17;;;;;;;5.85;2.30;;;;;;;;;;5068753;28;20038;-76
2021/12/08 13:55:53;;;;;;;3.50;1.70;;;;;;;;;;5068203;28;20405;-76
2021/12/08 13:58:20;;;;;;;3.75;1.90;;;;;;;;;;5067711;28;20033;-76
2021/12/08 14:00:48;;;;;;;3.67;2.00;;;;;;;;;;5068177;28;20046;-76
2021/12/08 14:03:20;;;;;;;3.47;1.92;;;;;;;;;;5068931;28;20029;-76
2021/12/08 14:05:47;;;;;;;5.13;3.05;;;;;;;;;;5082977;28;20611;-76
2021/12/08 14:08:19;;;;;;;4.40;2.33;;;;;;;;;;5068171;28;20024;-76
2021/12/08 14:10:47;;;;;;;7.72;4.18;;;;;;;;;;5068105;28;20025;-76
2021/12/08 14:13:19;;;;;;;15.73;7.60;;;;;;;;;;5068613;28;20026;-76
2021/12/08 14:15:49;;;;;;;5.25;3.42;;;;;;;;;;5067648;28;20039;-78
2021/12/08 14:18:28;;;;;;;7.07;3.50;;;;;;;;;;5051671;28;20031;-79
2021/12/08 14:21:06;;;;;;;3.63;1.90;;;;;;;;;;5067422;28;20029;-74
2021/12/08 14:23:37;;;;;;;4.60;2.53;;;;;;;;;;5069371;28;20030;-76
2021/12/08 14:26:07;;;;;;;6.47;1.65;;;;;;;;;;5067607;28;20023;-75
2021/12/08 14:28:39;;;;;;;1.42;1.00;;;;;;;;;;5067619;28;20025;-77
2021/12/08 14:31:11;;;;;;;1.85;1.20;;;;;;;;;;5067481;28;20497;-89
2021/12/08 14:33:37;;;;;;;2.75;1.23;;;;;;;;;;5067792;28;20035;-81
2021/12/08 14:36:08;;;;;;;3.17;1.48;;;;;;;;;;5069360;28;20546;-76
2021/12/08 14:38:38;;;;;;;3.35;1.30;;;;;;;;;;5069430;28;20020;-81
2021/12/08 14:41:24;;;;;;;1.73;1.10;;;;;;;;;;5067495;28;20025;-81
2021/12/08 14:43:53;;;;;;;2.05;1.27;;;;;;;;;;5067423;28;20450;-81
2021/12/08 14:46:22;;;;;;;8.52;3.90;;;;;;;;;;5067003;28;20032;-80
2021/12/08 14:48:55;;;;;;;4.43;1.77;;;;;;;;;;5067754;28;20029;-80
2021/12/08 14:51:23;;;;;;;7.05;3.22;;;;;;;;;;5053462;28;20039;-73
2021/12/08 14:53:49;;;;;;;6.40;2.38;;;;;;;;;;5070378;28;20511;-75
2021/12/08 14:56:16;;;;;;;9.73;4.40;;;;;;;;;;5067514;28;20036;-77
2021/12/08 14:58:42;;;;;;;8.38;3.83;;;;;;;;;;5067366;28;20030;-88
2021/12/08 15:01:10;;;;;;;7.05;3.47;;;;;;;;;;5066633;28;20029;-79
2021/12/08 15:03:46;;;;;;;3.80;2.00;;;;;;;;;;5066483;28;20028;-86
2021/12/08 15:06:16;;;;;;;3.20;1.55;;;;;;;;;;5068268;28;20021;-77
2021/12/08 15:08:43;;;;;;;2.60;1.60;;;;;;;;;;5070525;28;20397;-76
2021/12/08 15:11:16;;;;;;;2.95;2.15;;;;;;;;;;5067264;28;20279;-77
2021/12/08 15:13:43;;;;;;;2.83;1.58;;;;;;;;;;5067206;28;20029;-76
2021/12/08 15:16:18;;;;;;;6.07;1.35;;;;;;;;;;5066651;28;20059;-84
2021/12/08 15:18:46;;;;;;;3.75;1.90;;;;;;;;;;5067274;28;20020;-83
2021/12/08 15:21:24;;;;;;;3.95;1.27;;;;;;;;;;5068013;28;20033;-84
2021/12/08 15:24:01;;;;;;;2.92;1.25;;;;;;;;;;5070107;28;20032;-83
2021/12/08 15:26:27;;;;;;;1.38;0.80;;;;;;;;;;5068274;28;20497;-78
2021/12/08 15:28:53;;;;;;;2.03;1.42;;;;;;;;;;5067004;28;20028;-83
2021/12/08 15:31:27;;;;;;;2.80;1.60;;;;;;;;;;5068996;28;20033;-79
2021/12/08 15:33:53;;;;;;;4.65;1.13;;;;;;;;;;5070465;28;20474;-77
2021/12/08 15:36:24;;;;;;;2.55;1.10;;;;;;;;;;5069891;28;20036;-78
2021/12/08 15:38:52;;;;;;;1.08;0.85;;;;;;;;;;5073974;28;20037;-79
2021/12/08 15:41:21;;;;;;;1.60;0.93;;;;;;;;;;5071699;28;20034;-80
2021/12/08 15:43:47;;;;;;;2.20;1.10;;;;;;;;;;5070164;28;20062;-92
2021/12/08 15:46:15;;;;;;;2.05;1.10;;;;;;;;;;5070705;28;20032;-81
2021/12/08 15:48:49;;;;;;;2.83;1.70;;;;;;;;;;5070836;28;20020;-84
2021/12/08 15:51:16;;;;;;;4.13;2.60;;;;;;;;;;5071320;28;20035;-89
2021/12/08 15:53:43;;;;;;;3.85;2.35;;;;;;;;;;5073363;28;20532;-89
2021/12/08 15:56:12;;;;;;;7.20;2.92;;;;;;;;;;5076086;28;20050;-85
2021/12/08 15:58:39;;;;;;;3.90;1.98;;;;;;;;;;5073614;28;20032;-81
2021/12/08 16:01:06;;;;;;;3.38;2.10;;;;;;;;;;5069795;28;20024;-82
2021/12/08 16:03:41;;;;;;;4.07;2.17;;;;;;;;;;5075100;28;20017;-93
2021/12/08 16:06:15;;;;;;;2.22;1.73;;;;;;;;;;5080645;28;20560;-93
2021/12/08 16:08:42;;;;;;;4.32;1.70;;;;;;;;;;5078324;28;20058;-74
2021/12/08 16:11:09;;;;;;;3.42;2.10;;;;;;;;;;5070574;28;20035;-81
2021/12/08 16:13:35;;;;;;;3.58;2.15;;;;;;;;;;5069118;28;20097;-82
2021/12/08 16:16:04;;;;;;;4.65;1.98;;;;;;;;;;5068712;28;20507;-80
2021/12/08 16:18:31;;;;;;;6.97;3.35;;;;;;;;;;5069948;28;20032;-74
2021/12/08 16:20:58;;;;;;;6.15;3.50;;;;;;;;;;5072317;28;20028;-75
2021/12/08 16:23:25;;;;;;;19.20;8.20;;;;;;;;;;5070689;28;20032;-74
2021/12/08 16:25:52;;;;;;;13.15;6.95;;;;;;;;;;5069836;28;20438;-75
2021/12/08 16:28:19;;;;;;;13.90;7.00;;;;;;;;;;5069419;28;20081;-75
2021/12/08 16:30:45;;;;;;;23.33;9.93;;;;;;;;;;5070053;28;20024;-74
2021/12/08 16:33:12;;;;;;;15.57;6.82;;;;;;;;;;5070260;28;20032;-74
2021/12/08 16:35:39;;;;;;;7.25;3.92;;;;;;;;;;5072216;28;20054;-74
2021/12/08 16:38:05;;;;;;;18.08;8.32;;;;;;;;;;5069747;28;20401;-74
2021/12/08 16:43:18;;;;;;;56.33;21.85;;;;;;;;;;5068934;28;20024;-74
2021/12/08 16:45:48;;;;;;;15.00;7.82;;;;;;;;;;5069739;28;20036;-74
2021/12/08 16:48:17;;;;;;;45.90;18.73;;;;;;;;;;5070869;28;20025;-74
2021/12/08 16:50:43;;;;;;;43.22;18.83;;;;;;;;;;5071644;28;20485;-74
2021/12/08 16:53:12;;;;;;;31.92;14.15;;;;;;;;;;5069114;28;20020;-74
2021/12/08 16:55:38;;;;;;;33.45;14.02;;;;;;;;;;5069434;28;20039;-74
2021/12/08 16:58:07;;;;;;;33.72;13.65;;;;;;;;;;5068973;28;20031;-75
2021/12/08 17:00:41;;;;;;;25.90;10.15;;;;;;;;;;5069456;28;20025;-73
2021/12/08 17:03:09;;;;;;;37.15;15.88;;;;;;;;;;5070887;28;20028;-74
2021/12/08 17:05:37;;;;;;;71.28;29.33;;;;;;;;;;5071265;28;20477;-74
2021/12/08 17:08:05;;;;;;;47.00;20.48;;;;;;;;;;5069212;28;20031;-74
2021/12/08 17:10:32;;;;;;;158.38;56.78;;;;;;;;;;5068892;28;20028;-73
2021/12/08 17:12:59;;;;;;;87.40;30.58;;;;;;;;;;5068633;28;20185;-73
2021/12/08 17:15:25;;;;;;;24.90;10.75;;;;;;;;;;5069077;28;20033;-74
2021/12/08 17:17:51;;;;;;;11.38;5.50;;;;;;;;;;5072007;28;20029;-74
2021/12/08 17:20:18;;;;;;;20.70;10.70;;;;;;;;;;5069276;28;20447;-74
2021/12/08 17:22:44;;;;;;;11.05;6.03;;;;;;;;;;5068804;28;20028;-74
2021/12/08 17:25:11;;;;;;;36.63;15.90;;;;;;;;;;5068830;28;20363;-73
2021/12/08 17:27:37;;;;;;;32.85;16.33;;;;;;;;;;5070060;28;20538;-74
2021/12/08 17:30:05;;;;;;;11.98;8.48;;;;;;;;;;5070740;28;20031;-74
2021/12/08 17:32:31;;;;;;;14.63;10.45;;;;;;;;;;5070210;28;20035;-74
2021/12/08 17:34:57;;;;;;;6.50;4.47;;;;;;;;;;5068482;28;20085;-74
2021/12/08 17:37:24;;;;;;;6.07;3.50;;;;;;;;;;5067455;28;20024;-74
2021/12/08 17:39:52;;;;;;;6.53;2.67;;;;;;;;;;5068179;28;20145;-74
2021/12/08 17:42:19;;;;;;;3.90;2.30;;;;;;;;;;5052803;28;20035;-74
2021/12/08 17:44:45;;;;;;;4.20;2.30;;;;;;;;;;5067203;28;20494;-74
2021/12/08 17:47:12;;;;;;;4.70;2.40;;;;;;;;;;5068561;28;20020;-74
2021/12/08 17:49:38;;;;;;;7.15;3.95;;;;;;;;;;5068284;28;20034;-74
2021/12/08 17:52:05;;;;;;;7.75;4.20;;;;;;;;;;5067833;28;20028;-74
2021/12/08 17:54:31;;;;;;;10.85;5.80;;;;;;;;;;5067366;28;20047;-74
2021/12/08 17:56:57;;;;;;;9.25;5.18;;;;;;;;;;5070879;28;20389;-74
2021/12/08 17:59:25;;;;;;;8.40;4.75;;;;;;;;;;5069102;28;20028;-73
2021/12/08 18:01:51;;;;;;;6.53;3.60;;;;;;;;;;5068197;28;20023;-74
2021/12/08 18:04:18;;;;;;;6.70;4.47;;;;;;;;;;5068001;28;20070;-74
2021/12/08 18:06:44;;;;;;;6.55;4.82;;;;;;;;;;5069577;28;20020;-74
2021/12/08 18:09:13;;;;;;;6.57;3.67;;;;;;;;;;5068672;28;20017;-74
2021/12/08 18:11:40;;;;;;;4.40;2.53;;;;;;;;;;5070608;28;20020;-74
2021/12/08 18:14:08;;;;;;;4.90;3.17;;;;;;;;;;5068148;28;20392;-74
2021/12/08 18:16:35;;;;;;;4.82;3.20;;;;;;;;;;5067897;28;20474;-73
2021/12/08 18:19:01;;;;;;;6.97;3.63;;;;;;;;;;5067891;28;20016;-74
2021/12/08 18:21:29;;;;;;;5.88;2.97;;;;;;;;;;5068172;28;20027;-74
2021/12/08 18:23:56;;;;;;;3.72;1.98;;;;;;;;;;5069703;28;20024;-74
2021/12/08 18:26:23;;;;;;;6.75;3.67;;;;;;;;;;5068763;28;20029;-74
2021/12/08 18:28:50;;;;;;;5.22;2.45;;;;;;;;;;5075239;28;20043;-74
2021/12/08 18:31:16;;;;;;;11.73;3.38;;;;;;;;;;5059668;28;20473;-74
2021/12/08 18:33:43;;;;;;;7.22;2.35;;;;;;;;;;5068061;28;20508;-74
2021/12/08 18:38:43;;;;;;;6.03;2.75;;;;;;;;;;5070464;28;20032;-74
2021/12/08 18:41:15;;;;;;;4.88;2.75;;;;;;;;;;5067622;28;20042;-74
2021/12/08 18:43:43;;;;;;;3.80;2.03;;;;;;;;;;5066177;28;20416;-74
2021/12/08 18:46:11;;;;;;;5.57;3.30;;;;;;;;;;5069027;28;20042;-74
2021/12/08 18:48:38;;;;;;;6.25;1.92;;;;;;;;;;5067306;28;20405;-74
2021/12/08 18:51:06;;;;;;;4.53;2.08;;;;;;;;;;5069732;28;20032;-74
2021/12/08 18:53:33;;;;;;;4.57;2.22;;;;;;;;;;5068683;28;20031;-74
2021/12/08 18:56:00;;;;;;;4.63;2.00;;;;;;;;;;5067546;28;20028;-74
2021/12/08 18:58:28;;;;;;;3.88;1.48;;;;;;;;;;5067569;28;20509;-73
2021/12/08 19:00:55;;;;;;;3.10;1.92;;;;;;;;;;5067500;28;20424;-74
2021/12/08 19:03:22;;;;;;;3.58;2.28;;;;;;;;;;5067547;28;20027;-74
2021/12/08 19:05:48;;;;;;;3.45;2.10;;;;;;;;;;5072108;28;20020;-74
2021/12/08 19:08:17;;;;;;;2.38;1.70;;;;;;;;;;5071165;28;20033;-74
2021/12/08 19:10:44;;;;;;;2.83;1.83;;;;;;;;;;5071112;28;20033;-74
2021/12/08 19:13:11;;;;;;;42.13;18.65;;;;;;;;;;5071348;28;20020;-74
2021/12/08 19:15:37;;;;;;;9.88;5.28;;;;;;;;;;5071290;28;20043;-75
2021/12/08 19:18:04;;;;;;;17.25;10.25;;;;;;;;;;5073787;28;20028;-73
2021/12/08 19:20:31;;;;;;;6.78;4.57;;;;;;;;;;5072453;28;20025;-74
2021/12/08 19:22:58;;;;;;;6.47;4.30;;;;;;;;;;5070543;28;20020;-74
2021/12/08 19:25:24;;;;;;;7.03;4.88;;;;;;;;;;5072532;28;20489;-74
2021/12/08 19:27:51;;;;;;;3.00;2.03;;;;;;;;;;5074899;28;20040;-74
2021/12/08 19:30:19;;;;;;;3.17;2.42;;;;;;;;;;5055437;28;20024;-74
2021/12/08 19:32:45;;;;;;;3.60;1.88;;;;;;;;;;5074355;28;20463;-74
2021/12/08 19:35:12;;;;;;;3.95;2.30;;;;;;;;;;5070817;28;20043;-74
2021/12/08 19:37:38;;;;;;;4.07;2.42;;;;;;;;;;5070668;28;20020;-74
2021/12/08 19:40:06;;;;;;;2.60;2.20;;;;;;;;;;5070860;28;20134;-74
2021/12/08 19:42:32;;;;;;;3.00;2.08;;;;;;;;;;5070767;28;20031;-74
2021/12/08 19:45:01;;;;;;;3.28;1.88;;;;;;;;;;5072948;28;20049;-74
2021/12/08 19:47:27;;;;;;;4.43;2.80;;;;;;;;;;5071707;28;20024;-74
2021/12/08 19:49:54;;;;;;;3.05;2.30;;;;;;;;;;5070205;28;20028;-74
2021/12/08 19:52:20;;;;;;;6.05;3.03;;;;;;;;;;5070220;28;20038;-74
2021/12/08 19:54:50;;;;;;;5.85;3.60;;;;;;;;;;5070672;28;20043;-74
2021/12/08 19:57:16;;;;;;;5.10;3.22;;;;;;;;;;5071250;28;20092;-74
2021/12/08 19:59:42;;;;;;;4.47;2.83;;;;;;;;;;5073296;28;20031;-74
2021/12/08 20:02:09;;;;;;;3.45;2.40;;;;;;;;;;5070448;28;20020;-74
2021/12/08 20:04:36;;;;;;;4.90;3.05;;;;;;;;;;5071285;28;20039;-74
2021/12/08 20:07:03;;;;;;;4.28;2.80;;;;;;;;;;5070102;28;20469;-74
2021/12/08 20:09:30;;;;;;;2.42;1.92;;;;;;;;;;5070402;28;20059;-74
2021/12/08 20:11:58;;;;;;;3.67;2.00;;;;;;;;;;5072670;28;20025;-74
2021/12/08 20:14:28;;;;;;;3.15;1.90;;;;;;;;;;5071672;28;20515;-74
2021/12/08 20:16:54;;;;;;;3.83;2.20;;;;;;;;;;5068481;28;20482;-74
2021/12/08 20:19:20;;;;;;;4.75;2.70;;;;;;;;;;5068549;28;20050;-74
2021/12/08 20:21:47;;;;;;;12.35;6.10;;;;;;;;;;5070164;28;20148;-75
2021/12/08 20:24:13;;;;;;;6.63;3.15;;;;;;;;;;5071052;28;20029;-74
2021/12/08 20:26:40;;;;;;;18.27;9.20;;;;;;;;;;5072562;28;20028;-74
2021/12/08 20:29:06;;;;;;;14.27;6.85;;;;;;;;;;5069354;28;20431;-74
2021/12/08 20:31:33;;;;;;;42.13;19.08;;;;;;;;;;5069946;28;20424;-74
2021/12/08 20:34:00;;;;;;;32.00;12.15;;;;;;;;;;5069548;28;20416;-74
2021/12/08 20:36:28;;;;;;;22.85;8.65;;;;;;;;;;5068634;28;20444;-74
2021/12/08 20:38:54;;;;;;;12.85;5.25;;;;;;;;;;5072541;28;20021;-74
2021/12/08 20:41:22;;;;;;;1.70;1.15;;;;;;;;;;5070480;28;20085;-74
2021/12/08 20:43:49;;;;;;;23.05;9.63;;;;;;;;;;5070744;28;20049;-74
2021/12/08 20:46:16;;;;;;;10.10;5.00;;;;;;;;;;5069413;28;20040;-74
2021/12/08 20:48:43;;;;;;;12.77;6.05;;;;;;;;;;5084860;28;20023;-74
2021/12/08 20:51:10;;;;;;;6.90;3.67;;;;;;;;;;5070010;28;20025;-74
2021/12/08 20:53:37;;;;;;;4.85;2.65;;;;;;;;;;5071406;28;20046;-74
2021/12/08 20:56:03;;;;;;;1.92;1.40;;;;;;;;;;5069490;28;20040;-74
2021/12/08 20:58:32;;;;;;;1.60;1.08;;;;;;;;;;5069278;28;20028;-74
2021/12/08 21:01:01;;;;;;;2.05;1.10;;;;;;;;;;5069361;28;20020;-74
2021/12/08 21:03:27;;;;;;;1.98;1.13;;;;;;;;;;5069099;28;20028;-74
2021/12/08 21:05:54;;;;;;;4.03;1.90;;;;;;;;;;5071508;28;20023;-74
2021/12/08 21:08:22;;;;;;;10.32;5.50;;;;;;;;;;5069911;28;20414;-74
2021/12/08 21:10:49;;;;;;;10.15;5.60;;;;;;;;;;5069166;28;20032;-74
2021/12/08 21:13:17;;;;;;;8.15;4.85;;;;;;;;;;5069084;28;20039;-74
2021/12/08 21:15:43;;;;;;;12.00;6.68;;;;;;;;;;5069074;28;20035;-74
2021/12/08 21:18:10;;;;;;;5.07;2.90;;;;;;;;;;5070367;28;20062;-74
2021/12/08 21:20:37;;;;;;;4.68;3.08;;;;;;;;;;5070818;28;20033;-74
2021/12/08 21:23:11;;;;;;;4.47;3.20;;;;;;;;;;5069801;28;20021;-74
2021/12/08 21:25:38;;;;;;;4.72;3.10;;;;;;;;;;5068690;28;20020;-74
2021/12/08 21:28:06;;;;;;;7.05;3.80;;;;;;;;;;5067970;28;20024;-74
2021/12/08 21:30:37;;;;;;;4.15;2.30;;;;;;;;;;5068846;28;20025;-74
2021/12/08 21:33:04;;;;;;;4.25;2.45;;;;;;;;;;5070835;28;20029;-74
2021/12/08 21:37:57;;;;;;;2.33;1.80;;;;;;;;;;5068674;28;20028;-74
2021/12/08 21:40:24;;;;;;;7.90;4.32;;;;;;;;;;5068464;28;20028;-74
2021/12/08 21:42:51;;;;;;;2.50;1.63;;;;;;;;;;5068529;28;20031;-73
2021/12/08 21:45:18;;;;;;;12.32;5.95;;;;;;;;;;5068508;28;20405;-74
2021/12/08 21:47:44;;;;;;;6.80;3.28;;;;;;;;;;5071054;28;20029;-74
2021/12/08 21:50:12;;;;;;;4.10;2.10;;;;;;;;;;5068581;28;20492;-74
2021/12/08 21:52:39;;;;;;;2.92;1.70;;;;;;;;;;5068306;28;20077;-74
2021/12/08 21:55:07;;;;;;;5.25;2.00;;;;;;;;;;5068734;28;20050;-74
2021/12/08 21:57:34;;;;;;;3.22;1.90;;;;;;;;;;5068456;28;20017;-74
2021/12/08 22:00:01;;;;;;;5.82;2.88;;;;;;;;;;5070312;28;20052;-74
2021/12/08 22:02:28;;;;;;;8.98;4.03;;;;;;;;;;5070893;28;20034;-74
2021/12/08 22:04:54;;;;;;;7.57;3.67;;;;;;;;;;5068711;28;20032;-74
2021/12/08 22:07:20;;;;;;;8.70;4.05;;;;;;;;;;5068606;28;20028;-74
2021/12/08 22:09:47;;;;;;;9.35;4.43;;;;;;;;;;5068180;28;20493;-74
2021/12/08 22:12:13;;;;;;;8.65;4.53;;;;;;;;;;5069284;28;20033;-74
2021/12/08 22:14:41;;;;;;;8.35;3.72;;;;;;;;;;5070380;28;20039;-74
2021/12/08 22:17:08;;;;;;;8.88;3.88;;;;;;;;;;5067766;28;20066;-74
2021/12/08 22:19:35;;;;;;;5.65;3.10;;;;;;;;;;5067899;28;20066;-74
2021/12/08 22:22:01;;;;;;;7.88;3.70;;;;;;;;;;5067773;28;20028;-74
2021/12/08 22:24:28;;;;;;;3.88;2.53;;;;;;;;;;5067552;28;20035;-74
2021/12/08 22:26:54;;;;;;;2.88;1.73;;;;;;;;;;5070676;28;20025;-74
2021/12/08 22:29:20;;;;;;;1.50;1.20;;;;;;;;;;5068460;28;20036;-74
2021/12/08 22:31:47;;;;;;;2.55;1.60;;;;;;;;;;5067484;28;20030;-74
2021/12/08 22:34:15;;;;;;;14.27;4.60;;;;;;;;;;5067718;28;20032;-74
2021/12/08 22:36:42;;;;;;;4.32;2.20;;;;;;;;;;5066678;28;20043;-74
2021/12/08 22:39:10;;;;;;;3.55;1.92;;;;;;;;;;5068733;28;20032;-74
2021/12/08 22:41:36;;;;;;;3.70;2.00;;;;;;;;;;5070891;28;20034;-74
2021/12/08 22:44:03;;;;;;;9.68;2.70;;;;;;;;;;5067094;28;20055;-74
2021/12/08 22:46:29;;;;;;;5.47;2.00;;;;;;;;;;5067647;28;20024;-74
2021/12/08 22:48:55;;;;;;;3.30;1.67;;;;;;;;;;5067572;28;20031;-74
2021/12/08 22:51:25;;;;;;;3.40;1.55;;;;;;;;;;5067837;28;20020;-74
2021/12/08 22:53:52;;;;;;;3.33;1.52;;;;;;;;;;5070540;28;20404;-74
2021/12/08 22:56:19;;;;;;;3.95;1.65;;;;;;;;;;5067864;28;20378;-74
2021/12/08 22:58:46;;;;;;;2.17;1.38;;;;;;;;;;5067223;28;20070;-74
2021/12/08 23:01:20;;;;;;;9.75;3.08;;;;;;;;;;5067450;28;20026;-74
2021/12/08 23:03:47;;;;;;;5.80;2.80;;;;;;;;;;5067185;28;20031;-74
2021/12/08 23:06:14;;;;;;;7.57;3.75;;;;;;;;;;5068543;28;20029;-74
2021/12/08 23:08:40;;;;;;;5.13;1.75;;;;;;;;;;5070268;28;20028;-73
2021/12/08 23:11:15;;;;;;;3.13;1.45;;;;;;;;;;5067348;28;20035;-74
2021/12/08 23:13:43;;;;;;;2.25;1.25;;;;;;;;;;5067114;28;20042;-74
2021/12/08 23:16:13;;;;;;;1.73;1.10;;;;;;;;;;5067236;28;20048;-74
2021/12/08 23:18:39;;;;;;;6.78;0.98;;;;;;;;;;5068596;28;20016;-74
2021/12/08 23:21:06;;;;;;;2.25;0.77;;;;;;;;;;5069551;28;20577;-74
2021/12/08 23:23:34;;;;;;;1.85;0.93;;;;;;;;;;5068602;28;20035;-74
2021/12/08 23:26:01;;;;;;;5.32;2.35;;;;;;;;;;5067222;28;20037;-74
2021/12/08 23:28:28;;;;;;;16.83;7.40;;;;;;;;;;5066940;28;20028;-74
2021/12/08 23:30:54;;;;;;;7.32;2.95;;;;;;;;;;5067156;28;20032;-74
2021/12/08 23:33:21;;;;;;;7.05;3.28;;;;;;;;;;5066354;28;20020;-74
2021/12/08 23:35:56;;;;;;;11.32;4.93;;;;;;;;;;5070304;28;20036;-74
2021/12/08 23:40:59;;;;;;;7.25;2.47;;;;;;;;;;5067273;28;20036;-74
2021/12/08 23:43:27;;;;;;;4.68;1.58;;;;;;;;;;5066203;28;20519;-74
2021/12/08 23:45:53;;;;;;;8.13;3.67;;;;;;;;;;5067161;28;20026;-74
2021/12/08 23:48:20;;;;;;;7.25;3.05;;;;;;;;;;5051406;28;20035;-74
2021/12/08 23:50:46;;;;;;;6.47;3.22;;;;;;;;;;5070412;28;20039;-74
2021/12/08 23:53:12;;;;;;;7.07;2.75;;;;;;;;;;5070436;28;20024;-74
2021/12/08 23:55:40;;;;;;;3.72;1.65;;;;;;;;;;5071846;28;20102;-74
2021/12/08 23:58:08;;;;;;;3.15;1.70;;;;;;;;;;5071680;28;20029;-74
